Seattle, Washington
Traffic Map
Current Weather Conditions
Seattle, Washington
Broken Clouds
Broken Clouds
56°
Feels Like: 56°
Wind Chill: 56° Ceiling: 1100
Heat Index: 56° Visibility: 10mi
Dew Point: 48° Wind: 5mph
Humidity: 75% Direction: 200° (SSW)
Pressure: 30.02in Gusts: 0mph
Raw Report DataKBFI 031453Z 20004KT 10SM BKN011 13/09 A3002 RMK AO2 SLP164 T01330089 53008
Traffic Incident Summary
Active as of:
Severity:
Category:
InformationThere was an issue retrieving the traffic information for this location. Please try a different location or try again shortly.
Advertisements
Track Severe Weather on mobile